Time;durP1;ratioP1;P1;durP2;ratioP2;P2;SDS_P1;SDS_P2;PMS_P1;PMS_P2;Temp;Humidity;BMP_temperature;BMP_pressure;BME280_temperature;BME280_humidity;BME280_pressure;Samples;Min_cycle;Max_cycle;Signal;HPM_P1;HPM_P2
2021/03/02 00:00:51;;;;;;;7.60;6.00;;;16.40;89.00;;;;;;5078837;28;20450;-49
2021/03/02 00:03:22;;;;;;;6.20;5.60;;;16.30;90.50;;;;;;5066488;28;20457;-49
2021/03/02 00:05:52;;;;;;;9.20;5.60;;;16.10;89.40;;;;;;5066631;28;20537;-49
2021/03/02 00:08:23;;;;;;;5.60;5.10;;;16.10;91.10;;;;;;5066956;28;20467;-46
2021/03/02 00:10:53;;;;;;;8.30;5.90;;;16.00;91.10;;;;;;5073913;28;20457;-46
2021/03/02 00:13:25;;;;;;;7.07;6.00;;;16.10;91.30;;;;;;5074128;28;20531;-44
2021/03/02 00:16:00;;;;;;;7.07;5.23;;;16.00;91.70;;;;;;5071841;28;20496;-46
2021/03/02 00:18:37;;;;;;;6.40;5.27;;;15.90;91.90;;;;;;5073688;28;20473;-45
2021/03/02 00:21:15;;;;;;;8.03;5.60;;;16.00;91.70;;;;;;5077538;28;20472;-46
2021/03/02 00:23:48;;;;;;;6.60;5.90;;;16.10;90.70;;;;;;5070387;28;20473;-49
2021/03/02 00:26:21;;;;;;;8.17;5.53;;;16.10;91.30;;;;;;5073289;28;20755;-49
2021/03/02 00:28:52;;;;;;;8.40;6.57;;;16.10;91.50;;;;;;5073024;28;20457;-48
2021/03/02 00:31:25;;;;;;;6.50;5.83;;;16.10;90.80;;;;;;5075732;28;20463;-48
2021/03/02 00:33:55;;;;;;;7.03;5.30;;;16.00;90.90;;;;;;5065285;28;20462;-49
2021/03/02 00:36:26;;;;;;;9.00;5.57;;;15.90;91.40;;;;;;5069270;28;20572;-48
2021/03/02 00:38:56;;;;;;;7.73;6.13;;;16.00;91.30;;;;;;5079226;28;20443;-52
2021/03/02 00:41:26;;;;;;;7.40;4.97;;;15.80;92.20;;;;;;5067201;28;20458;-44
2021/03/02 00:43:57;;;;;;;8.50;5.40;;;15.80;91.40;;;;;;5066557;28;20487;-49
2021/03/02 00:46:29;;;;;;;9.43;6.13;;;15.70;91.40;;;;;;5067482;28;20462;-44
2021/03/02 00:48:59;;;;;;;7.30;5.73;;;15.60;92.00;;;;;;5061595;28;20533;-43
2021/03/02 00:51:29;;;;;;;6.67;5.80;;;15.60;92.70;;;;;;5066842;28;20515;-42
2021/03/02 00:53:59;;;;;;;8.67;5.83;;;15.50;92.50;;;;;;5063397;28;20512;-43
2021/03/02 00:56:29;;;;;;;8.43;6.07;;;15.50;93.30;;;;;;5062921;28;20527;-42
2021/03/02 00:58:59;;;;;;;6.20;5.67;;;15.40;93.60;;;;;;5079496;28;20461;-43
2021/03/02 01:01:32;;;;;;;7.87;6.30;;;15.40;93.40;;;;;;5070032;28;20462;-43
2021/03/02 01:04:02;;;;;;;6.63;5.90;;;15.40;93.00;;;;;;5063312;28;20525;-42
2021/03/02 01:06:32;;;;;;;6.50;5.83;;;15.40;93.80;;;;;;5072058;28;20466;-43
2021/03/02 01:09:03;;;;;;;7.73;5.80;;;15.30;94.00;;;;;;5080589;28;20474;-43
2021/03/02 01:11:33;;;;;;;5.87;5.30;;;15.10;94.40;;;;;;5075923;28;20565;-44
2021/03/02 01:14:04;;;;;;;8.90;5.33;;;15.10;94.60;;;;;;5084159;28;20467;-45
2021/03/02 01:16:54;;;;;;;6.70;6.10;;;14.90;95.20;;;;;;5074420;28;20547;-43
2021/03/02 01:19:25;;;;;;;8.37;6.07;;;14.80;95.60;;;;;;5069219;28;20572;-45
2021/03/02 01:21:55;;;;;;;7.37;5.70;;;14.80;95.30;;;;;;5074201;28;20457;-43
2021/03/02 01:24:25;;;;;;;5.80;5.30;;;14.80;95.20;;;;;;5083175;28;20490;-46
2021/03/02 01:26:55;;;;;;;6.70;6.00;;;14.70;95.50;;;;;;5082060;28;20449;-43
2021/03/02 01:29:25;;;;;;;8.23;6.23;;;14.60;96.30;;;;;;5071574;28;20458;-42
2021/03/02 01:31:56;;;;;;;12.00;5.50;;;14.40;96.60;;;;;;5076919;28;20452;-49
2021/03/02 01:34:26;;;;;;;6.87;6.17;;;14.40;97.20;;;;;;5066640;28;20469;-43
2021/03/02 01:36:57;;;;;;;8.60;6.67;;;14.30;97.30;;;;;;5068784;28;20453;-43
2021/03/02 01:39:27;;;;;;;7.30;5.80;;;14.20;97.90;;;;;;5066743;28;20436;-49
2021/03/02 01:41:58;;;;;;;6.43;5.83;;;14.10;97.50;;;;;;5081697;28;20449;-49
2021/03/02 01:44:29;;;;;;;8.97;5.50;;;14.10;97.90;;;;;;5083692;28;20555;-44
2021/03/02 01:47:01;;;;;;;7.10;6.33;;;14.00;97.90;;;;;;5080062;28;20463;-44
2021/03/02 01:49:31;;;;;;;6.43;5.83;;;14.00;98.50;;;;;;5065488;28;20453;-46
2021/03/02 01:52:01;;;;;;;9.47;7.23;;;13.90;99.90;;;;;;5065296;28;20836;-42
2021/03/02 01:54:31;;;;;;;6.93;6.03;;;13.80;99.70;;;;;;5065158;28;20461;-44
2021/03/02 01:57:01;;;;;;;9.53;6.70;;;13.60;99.90;;;;;;5065195;28;20567;-41
2021/03/02 01:59:31;;;;;;;12.87;6.30;;;13.50;99.90;;;;;;5079008;28;20456;-43
2021/03/02 02:02:04;;;;;;;6.50;5.90;;;13.30;99.90;;;;;;5075573;28;20452;-48
2021/03/02 02:04:40;;;;;;;6.80;6.20;;;13.20;99.90;;;;;;5076923;28;20550;-43
2021/03/02 02:07:13;;;;;;;7.00;6.07;;;13.00;99.90;;;;;;5078478;28;20455;-44
2021/03/02 02:09:51;;;;;;;7.60;5.70;;;12.90;99.90;;;;;;5082035;28;20452;-46
2021/03/02 02:12:26;;;;;;;10.00;4.90;;;12.80;99.90;;;;;;5064693;28;20444;-46
2021/03/02 02:15:03;;;;;;;7.73;5.20;;;12.60;99.90;;;;;;5063398;28;20459;-46
2021/03/02 02:17:41;;;;;;;9.87;5.70;;;12.50;99.90;;;;;;5066529;28;20482;-41
2021/03/02 02:20:16;;;;;;;7.30;5.73;;;12.40;99.90;;;;;;5068804;28;20461;-47
2021/03/02 02:23:10;;;;;;;8.53;5.97;;;12.30;99.90;;;;;;5084252;28;20553;-46
2021/03/02 02:25:47;;;;;;;9.20;5.20;;;12.20;99.90;;;;;;5066152;28;20534;-41
2021/03/02 02:28:19;;;;;;;7.97;7.17;;;12.10;99.90;;;;;;5064720;28;20439;-43
2021/03/02 02:30:54;;;;;;;8.17;7.00;;;12.00;99.90;;;;;;5063239;28;20437;-44
2021/03/02 02:33:26;;;;;;;9.53;7.33;;;12.00;99.90;;;;;;5064992;28;20528;-46
2021/03/02 02:35:59;;;;;;;11.20;7.80;;;11.90;99.90;;;;;;5075790;28;20792;-44
2021/03/02 02:38:30;;;;;;;8.60;7.80;;;11.80;99.90;;;;;;5084016;28;20451;-43
2021/03/02 02:41:01;;;;;;;9.27;7.40;;;11.70;99.90;;;;;;5081587;28;20456;-44
2021/03/02 02:43:34;;;;;;;11.77;7.70;;;11.60;99.90;;;;;;5083483;28;20455;-45
2021/03/02 02:46:04;;;;;;;8.00;7.17;;;11.50;99.90;;;;;;5075246;28;20491;-43
2021/03/02 02:48:34;;;;;;;12.73;7.70;;;11.50;99.90;;;;;;5077110;28;20459;-43
2021/03/02 02:51:05;;;;;;;7.80;7.00;;;11.40;99.90;;;;;;5063328;28;20455;-43
2021/03/02 02:53:37;;;;;;;9.20;7.73;;;11.30;99.90;;;;;;5069629;28;20512;-42
2021/03/02 02:56:09;;;;;;;8.30;7.37;;;11.30;99.90;;;;;;5074548;28;20449;-44
2021/03/02 02:58:44;;;;;;;8.33;7.53;;;11.20;99.90;;;;;;5063866;28;20461;-44
2021/03/02 03:01:15;;;;;;;8.17;7.37;;;11.20;99.90;;;;;;5068599;28;20485;-48
2021/03/02 03:03:48;;;;;;;9.43;8.10;;;11.20;99.90;;;;;;5065079;28;20448;-47
2021/03/02 03:06:21;;;;;;;25.60;20.17;;;11.10;99.90;;;;;;5064762;28;20741;-43
2021/03/02 03:08:53;;;;;;;30.13;21.27;;;11.10;99.90;;;;;;5063469;28;20449;-43
2021/03/02 03:11:27;;;;;;;17.83;15.50;;;11.00;99.90;;;;;;5077650;28;20472;-42
2021/03/02 03:13:59;;;;;;;24.70;17.70;;;10.90;99.90;;;;;;5078530;28;20225;-45
2021/03/02 03:16:32;;;;;;;14.80;13.15;;;10.90;99.90;;;;;;5061936;28;20547;-41
2021/03/02 03:19:04;;;;;;;13.27;11.05;;;10.80;99.90;;;;;;5063458;28;20291;-44
2021/03/02 03:21:35;;;;;;;17.70;12.37;;;10.80;99.90;;;;;;5079511;28;20253;-42
2021/03/02 03:24:06;;;;;;;14.47;10.77;;;10.70;99.90;;;;;;5066387;28;20466;-43
2021/03/02 03:26:37;;;;;;;14.77;11.05;;;10.60;99.90;;;;;;5068712;28;20451;-42
2021/03/02 03:29:11;;;;;;;11.70;10.48;;;10.50;99.90;;;;;;5062365;28;20210;-45
2021/03/02 03:31:41;;;;;;;12.60;10.00;;;10.50;99.90;;;;;;5062107;28;20213;-43
2021/03/02 03:34:12;;;;;;;15.38;9.68;;;10.50;99.90;;;;;;5069020;28;20807;-42
2021/03/02 03:36:42;;;;;;;10.43;9.18;;;10.40;99.90;;;;;;5065697;28;20649;-46
2021/03/02 03:39:13;;;;;;;14.30;10.38;;;10.20;99.90;;;;;;5082845;28;20205;-46
2021/03/02 03:41:43;;;;;;;11.87;9.70;;;10.20;99.90;;;;;;5064748;28;20588;-43
2021/03/02 03:44:14;;;;;;;13.38;10.98;;;10.20;99.90;;;;;;5063755;28;20864;-44
2021/03/02 03:46:45;;;;;;;14.20;9.10;;;10.10;99.90;;;;;;5062180;28;20187;-44
2021/03/02 03:49:15;;;;;;;12.98;10.45;;;10.00;99.90;;;;;;5064056;28;20187;-43
2021/03/02 03:51:46;;;;;;;11.85;9.93;;;9.80;99.90;;;;;;5062360;28;20234;-44
2021/03/02 03:54:18;;;;;;;13.10;11.25;;;9.80;99.90;;;;;;5066610;28;20214;-43
2021/03/02 03:56:49;;;;;;;14.77;11.93;;;9.70;99.90;;;;;;5062860;28;20877;-44
2021/03/02 03:59:22;;;;;;;12.68;11.48;;;9.70;99.90;;;;;;5075366;28;20209;-45
2021/03/02 04:01:53;;;;;;;16.88;14.38;;;9.60;99.90;;;;;;5081957;28;20190;-43
2021/03/02 04:04:25;;;;;;;17.75;14.45;;;9.70;99.90;;;;;;5077300;28;20291;-44
2021/03/02 04:06:57;;;;;;;19.13;17.05;;;9.80;99.90;;;;;;5075479;28;20631;-39
2021/03/02 04:09:27;;;;;;;20.33;16.00;;;9.60;99.90;;;;;;5063146;28;20280;-40
2021/03/02 04:11:57;;;;;;;17.02;15.23;;;9.60;99.90;;;;;;5070856;28;20736;-40
2021/03/02 04:14:33;;;;;;;21.20;18.15;;;9.50;99.90;;;;;;5077880;28;20223;-40
2021/03/02 04:17:05;;;;;;;19.33;17.52;;;9.50;99.90;;;;;;5083173;28;20305;-40
2021/03/02 04:19:36;;;;;;;19.70;17.00;;;9.50;99.90;;;;;;5080307;28;20771;-40
2021/03/02 04:22:06;;;;;;;17.83;15.85;;;9.50;99.90;;;;;;5082698;28;20249;-40
2021/03/02 04:24:36;;;;;;;17.30;15.48;;;9.40;99.90;;;;;;5080595;28;20226;-40
2021/03/02 04:27:07;;;;;;;16.83;15.07;;;9.30;99.90;;;;;;5068052;28;20273;-38
2021/03/02 04:29:39;;;;;;;16.88;15.05;;;9.20;99.90;;;;;;5063901;28;20234;-39
2021/03/02 04:32:10;;;;;;;22.58;15.98;;;9.20;99.90;;;;;;5067274;28;20199;-40
2021/03/02 04:34:40;;;;;;;17.60;15.90;;;9.20;99.90;;;;;;5065923;28;20210;-40
2021/03/02 04:37:10;;;;;;;17.90;16.10;;;9.10;99.90;;;;;;5076588;28;20201;-39
2021/03/02 04:39:41;;;;;;;20.00;17.98;;;9.00;99.90;;;;;;5065202;28;20203;-39
2021/03/02 04:42:11;;;;;;;21.67;18.80;;;9.00;99.90;;;;;;5072897;28;20265;-39
2021/03/02 04:44:43;;;;;;;24.63;19.10;;;8.90;99.90;;;;;;5078504;28;20234;-39
2021/03/02 04:47:13;;;;;;;18.25;16.45;;;9.00;99.90;;;;;;5071742;28;20262;-39
2021/03/02 04:49:43;;;;;;;21.80;17.83;;;9.00;99.90;;;;;;5076206;28;20230;-40
2021/03/02 04:52:13;;;;;;;19.65;16.75;;;9.10;99.90;;;;;;5082345;28;20214;-40
2021/03/02 04:54:43;;;;;;;19.67;16.65;;;9.00;99.90;;;;;;5085202;28;20209;-39
2021/03/02 04:57:13;;;;;;;22.80;17.55;;;8.90;99.90;;;;;;5074291;28;20250;-39
2021/03/02 04:59:44;;;;;;;19.42;16.60;;;8.80;99.90;;;;;;5084733;28;20194;-40
2021/03/02 05:02:15;;;;;;;25.75;23.05;;;8.80;99.90;;;;;;5084738;28;20292;-38
2021/03/02 05:04:45;;;;;;;27.67;25.00;;;8.80;99.90;;;;;;5081949;28;20296;-40
2021/03/02 05:07:15;;;;;;;21.40;19.15;;;8.70;99.90;;;;;;5078760;28;20209;-39
2021/03/02 05:09:45;;;;;;;21.05;18.80;;;8.60;99.90;;;;;;5081792;28;20267;-40
2021/03/02 05:12:15;;;;;;;21.95;19.75;;;8.50;99.90;;;;;;5075314;28;20276;-40
2021/03/02 05:14:46;;;;;;;22.15;19.77;;;8.40;99.90;;;;;;5077358;28;20277;-39
2021/03/02 05:17:17;;;;;;;21.40;19.20;;;8.40;99.90;;;;;;5079158;28;20234;-39
2021/03/02 05:19:47;;;;;;;19.60;17.15;;;8.40;99.90;;;;;;5067470;28;20205;-40
2021/03/02 05:22:17;;;;;;;20.10;17.40;;;8.40;99.90;;;;;;5069527;28;20217;-40
2021/03/02 05:24:47;;;;;;;22.00;18.48;;;8.30;99.90;;;;;;5066800;28;20226;-39
2021/03/02 05:27:17;;;;;;;20.45;18.38;;;8.30;99.90;;;;;;5072560;28;20244;-40
2021/03/02 05:29:48;;;;;;;20.38;18.10;;;8.30;99.90;;;;;;5072545;28;20201;-40
2021/03/02 05:32:18;;;;;;;18.42;16.63;;;8.30;99.90;;;;;;5076426;28;20201;-40
2021/03/02 05:34:48;;;;;;;18.50;16.50;;;8.30;99.90;;;;;;5066583;28;20242;-40
2021/03/02 05:37:19;;;;;;;22.70;18.67;;;8.20;99.90;;;;;;5077948;28;20286;-39
2021/03/02 05:39:49;;;;;;;23.30;21.00;;;8.20;99.90;;;;;;5073219;28;20212;-39
2021/03/02 05:42:19;;;;;;;21.50;19.30;;;8.20;99.90;;;;;;5075261;28;20266;-38
2021/03/02 05:44:50;;;;;;;22.25;19.05;;;8.20;99.90;;;;;;5076486;28;20237;-39
2021/03/02 05:47:21;;;;;;;20.65;17.75;;;8.00;99.90;;;;;;5083578;28;20209;-39
2021/03/02 05:49:51;;;;;;;23.90;19.42;;;8.00;99.90;;;;;;5077875;28;20309;-39
2021/03/02 05:52:22;;;;;;;21.67;19.05;;;8.00;99.90;;;;;;5071444;28;20209;-39
2021/03/02 05:54:53;;;;;;;21.33;18.83;;;8.00;99.90;;;;;;5075438;28;20577;-39
2021/03/02 05:57:24;;;;;;;22.30;19.67;;;7.90;99.90;;;;;;5075896;28;20209;-38
2021/03/02 05:59:56;;;;;;;23.17;18.25;;;7.90;99.90;;;;;;5080278;28;20197;-38
2021/03/02 06:02:26;;;;;;;24.15;18.58;;;8.00;99.90;;;;;;5074082;28;20204;-39
2021/03/02 06:04:56;;;;;;;22.88;20.48;;;8.00;99.90;;;;;;5075864;28;20257;-39
2021/03/02 06:07:27;;;;;;;26.85;21.95;;;8.00;99.90;;;;;;5078095;28;20309;-38
2021/03/02 06:09:57;;;;;;;21.95;19.33;;;8.10;99.90;;;;;;5078089;28;20573;-39
2021/03/02 06:12:27;;;;;;;20.35;18.45;;;8.00;99.90;;;;;;5082722;28;20197;-38
2021/03/02 06:15:08;;;;;;;21.27;19.15;;;7.90;99.90;;;;;;5082446;28;20205;-38
2021/03/02 06:17:39;;;;;;;19.73;17.20;;;7.80;99.90;;;;;;5069716;28;20243;-39
2021/03/02 06:20:20;;;;;;;19.77;16.52;;;7.80;99.90;;;;;;5082136;28;20540;-39
2021/03/02 06:22:50;;;;;;;19.45;17.40;;;7.80;99.90;;;;;;5076799;28;20250;-38
2021/03/02 06:25:30;;;;;;;21.98;18.30;;;7.70;99.90;;;;;;5081589;28;20251;-38
2021/03/02 06:28:00;;;;;;;23.65;17.60;;;7.80;99.90;;;;;;5080908;28;20205;-39
2021/03/02 06:30:32;;;;;;;21.88;17.10;;;7.70;99.90;;;;;;5079951;28;20205;-39
2021/03/02 06:33:02;;;;;;;22.38;17.48;;;7.70;99.90;;;;;;5082003;28;20205;-38
2021/03/02 06:35:33;;;;;;;22.38;17.42;;;7.60;99.90;;;;;;5071331;28;20206;-39
2021/03/02 06:38:04;;;;;;;18.48;16.35;;;7.60;99.90;;;;;;5080941;28;20279;-39
2021/03/02 06:40:42;;;;;;;18.98;16.95;;;7.60;99.90;;;;;;5080261;28;20197;-39
2021/03/02 06:43:31;;;;;;;18.13;16.15;;;7.60;99.90;;;;;;5082611;28;20260;-37
2021/03/02 06:46:03;;;;;;;17.05;15.27;;;7.60;99.90;;;;;;5077833;28;20564;-38
2021/03/02 06:48:34;;;;;;;19.00;13.68;;;7.60;99.90;;;;;;5072956;28;20280;-38
2021/03/02 06:51:05;;;;;;;16.92;14.05;;;7.60;99.90;;;;;;5077280;28;20231;-38
2021/03/02 06:53:34;;;;;;;14.70;13.02;;;7.60;99.90;;;;;;5083133;28;20639;-38
2021/03/02 06:56:13;;;;;;;15.88;13.73;;;7.60;99.90;;;;;;5078629;28;20270;-38
2021/03/02 06:58:43;;;;;;;15.00;13.18;;;7.60;99.90;;;;;;5076400;28;20244;-39
2021/03/02 07:01:14;;;;;;;16.35;13.43;;;7.60;99.90;;;;;;5077330;28;20201;-38
2021/03/02 07:03:45;;;;;;;19.00;13.20;;;7.60;99.90;;;;;;5079541;28;20270;-38
2021/03/02 07:06:15;;;;;;;18.63;12.07;;;7.60;99.90;;;;;;5068123;28;20230;-41
2021/03/02 07:08:45;;;;;;;15.07;12.80;;;7.60;99.90;;;;;;5064712;28;20588;-38
2021/03/02 07:11:16;;;;;;;17.05;12.07;;;7.50;99.90;;;;;;5078410;28;20254;-39
2021/03/02 07:13:46;;;;;;;12.43;10.60;;;7.60;99.90;;;;;;5082500;28;20339;-39
2021/03/02 07:16:17;;;;;;;15.90;11.25;;;7.60;99.90;;;;;;5082068;28;20294;-40
2021/03/02 07:18:51;;;;;;;17.38;12.25;;;7.60;99.90;;;;;;5076690;28;20241;-39
2021/03/02 07:21:22;;;;;;;14.30;11.50;;;7.60;99.90;;;;;;5080824;28;20394;-39
2021/03/02 07:23:53;;;;;;;13.82;10.38;;;7.60;99.90;;;;;;5082444;28;20209;-39
2021/03/02 07:26:25;;;;;;;12.93;9.68;;;7.50;99.90;;;;;;5071805;28;20224;-39
2021/03/02 07:28:55;;;;;;;11.95;9.20;;;7.50;99.90;;;;;;5065490;28;20209;-38
2021/03/02 07:31:26;;;;;;;14.18;10.30;;;7.50;99.90;;;;;;5080697;28;20231;-39
2021/03/02 07:33:57;;;;;;;15.23;8.98;;;7.50;99.90;;;;;;5068708;28;20200;-39
2021/03/02 07:36:28;;;;;;;10.77;8.07;;;7.50;99.90;;;;;;5073533;28;20211;-39
2021/03/02 07:39:18;;;;;;;17.65;9.63;;;7.50;99.90;;;;;;5083120;28;20558;-39
2021/03/02 07:41:51;;;;;;;16.45;8.20;;;7.50;99.90;;;;;;5079022;28;20224;-39
2021/03/02 07:44:24;;;;;;;12.70;9.15;;;7.50;99.90;;;;;;5073816;28;20205;-39
2021/03/02 07:46:56;;;;;;;14.95;9.15;;;7.50;99.90;;;;;;5072356;28;20251;-39
2021/03/02 07:49:44;;;;;;;11.80;8.35;;;7.40;99.90;;;;;;5068551;28;20297;-39
2021/03/02 07:52:23;;;;;;;13.57;9.52;;;7.40;99.90;;;;;;5076108;28;20206;-39
2021/03/02 07:55:18;;;;;;;14.07;8.70;;;7.30;99.90;;;;;;5076447;28;20250;-39
2021/03/02 07:57:48;;;;;;;15.27;8.70;;;7.40;99.90;;;;;;5080864;28;20201;-39
2021/03/02 08:00:26;;;;;;;17.17;9.82;;;7.50;99.90;;;;;;5073863;28;20206;-39
2021/03/02 08:03:30;;;;;;;15.07;10.13;;;7.50;99.90;;;;;;5067006;28;20205;-39
2021/03/02 08:06:33;;;;;;;15.23;10.27;;;7.50;99.90;;;;;;5064175;28;20294;-39
2021/03/02 08:09:29;;;;;;;13.05;9.80;;;7.60;99.90;;;;;;5065067;28;20220;-39
2021/03/02 08:12:31;;;;;;;21.80;9.60;;;7.60;99.90;;;;;;5076802;28;20209;-39
2021/03/02 08:15:02;;;;;;;14.55;9.55;;;7.60;99.90;;;;;;5079311;28;20258;-38
2021/03/02 08:17:32;;;;;;;14.65;11.15;;;7.50;99.90;;;;;;5078941;28;20297;-39
2021/03/02 08:20:06;;;;;;;17.50;9.48;;;7.50;99.90;;;;;;5077531;28;20255;-39
2021/03/02 08:23:00;;;;;;;14.93;9.48;;;7.40;99.90;;;;;;5086446;28;20651;-39
2021/03/02 08:25:35;;;;;;;18.15;10.38;;;7.30;99.90;;;;;;5086201;28;20221;-39
2021/03/02 08:28:09;;;;;;;15.20;9.70;;;7.20;99.90;;;;;;5074517;28;20208;-39
2021/03/02 08:30:42;;;;;;;17.60;10.45;;;7.20;99.90;;;;;;5078772;28;20248;-39
2021/03/02 08:33:18;;;;;;;18.48;10.20;;;7.20;99.90;;;;;;5070275;28;20229;-39
2021/03/02 08:35:52;;;;;;;15.88;9.70;;;7.10;99.90;;;;;;5081334;28;20266;-39
2021/03/02 08:38:22;;;;;;;14.98;9.10;;;7.20;99.90;;;;;;5072117;28;20560;-39
2021/03/02 08:40:52;;;;;;;18.00;9.13;;;7.10;99.90;;;;;;5080141;28;20580;-39
2021/03/02 08:43:24;;;;;;;15.68;11.10;;;7.10;99.90;;;;;;5086348;28;20223;-39
2021/03/02 08:45:56;;;;;;;15.60;8.98;;;7.00;99.90;;;;;;5077495;28;20229;-39
2021/03/02 08:48:42;;;;;;;15.25;9.10;;;6.90;99.90;;;;;;5072799;28;20210;-39
2021/03/02 08:51:19;;;;;;;13.80;9.02;;;6.80;99.90;;;;;;5082292;28;20201;-38
2021/03/02 08:53:50;;;;;;;14.60;9.30;;;6.80;99.90;;;;;;5086531;28;20223;-39
2021/03/02 08:56:23;;;;;;;17.95;9.48;;;6.80;99.90;;;;;;5081958;28;20217;-39
2021/03/02 08:58:55;;;;;;;12.80;8.35;;;6.80;99.90;;;;;;5084707;28;20300;-39
2021/03/02 09:01:30;;;;;;;12.18;8.73;;;6.70;99.90;;;;;;5083052;28;20255;-39
2021/03/02 09:04:16;;;;;;;14.18;9.45;;;6.70;99.90;;;;;;5083003;28;20205;-39
2021/03/02 09:06:48;;;;;;;12.13;8.68;;;6.70;99.90;;;;;;5079982;28;20311;-39
2021/03/02 09:09:19;;;;;;;16.15;9.75;;;6.70;99.90;;;;;;5079801;28;20213;-39
2021/03/02 09:11:51;;;;;;;13.93;8.18;;;6.60;99.90;;;;;;5081701;28;20216;-39
2021/03/02 09:14:23;;;;;;;12.63;9.45;;;6.60;99.90;;;;;;5062935;28;20233;-39
2021/03/02 09:17:12;;;;;;;13.13;8.60;;;6.60;99.90;;;;;;5081674;28;20232;-39
2021/03/02 09:19:43;;;;;;;14.80;8.50;;;6.50;99.90;;;;;;5080866;28;20269;-39
2021/03/02 09:22:17;;;;;;;15.80;10.55;;;6.50;99.90;;;;;;5083975;28;20702;-39
2021/03/02 09:24:54;;;;;;;16.42;12.40;;;6.50;99.90;;;;;;5079898;28;20227;-39
2021/03/02 09:27:32;;;;;;;21.95;12.50;;;6.50;99.90;;;;;;5083375;28;20681;-39
2021/03/02 09:30:06;;;;;;;18.83;11.07;;;6.40;99.90;;;;;;5074285;28;20212;-39
2021/03/02 09:32:36;;;;;;;17.13;12.80;;;6.30;99.90;;;;;;5080812;28;20197;-38
2021/03/02 09:35:10;;;;;;;17.23;10.80;;;6.20;99.90;;;;;;5080029;28;20273;-38
2021/03/02 09:37:41;;;;;;;15.27;10.30;;;6.30;99.90;;;;;;5081257;28;20198;-39
2021/03/02 09:40:14;;;;;;;25.65;12.30;;;6.20;99.90;;;;;;5080676;28;20201;-39
2021/03/02 09:42:53;;;;;;;18.88;10.93;;;6.20;99.90;;;;;;5081459;28;20562;-39
2021/03/02 09:45:23;;;;;;;15.63;10.95;;;6.10;99.90;;;;;;5079358;28;20244;-39
2021/03/02 09:48:00;;;;;;;14.65;10.82;;;6.10;99.90;;;;;;5080161;28;20206;-39
2021/03/02 09:50:37;;;;;;;20.88;11.65;;;6.10;99.90;;;;;;5080373;28;20233;-39
2021/03/02 09:53:15;;;;;;;18.08;11.55;;;6.00;99.90;;;;;;5083135;28;20616;-38
2021/03/02 09:55:47;;;;;;;22.15;11.98;;;5.90;99.90;;;;;;5081849;28;20278;-38
2021/03/02 09:58:21;;;;;;;16.85;12.35;;;5.80;99.90;;;;;;5073323;28;20223;-39
2021/03/02 10:00:54;;;;;;;17.52;11.32;;;5.80;99.90;;;;;;5068367;28;20228;-39
2021/03/02 10:03:25;;;;;;;13.73;10.30;;;5.80;99.90;;;;;;5083758;28;20549;-39
2021/03/02 10:05:58;;;;;;;18.95;12.43;;;5.80;99.90;;;;;;5075922;28;20279;-39
2021/03/02 10:08:34;;;;;;;16.23;11.63;;;5.90;99.90;;;;;;5077730;28;20283;-39
2021/03/02 10:11:20;;;;;;;14.05;10.25;;;5.80;99.90;;;;;;5084052;28;20229;-39
2021/03/02 10:13:52;;;;;;;20.67;11.73;;;5.80;99.90;;;;;;5081660;28;20254;-39
2021/03/02 10:16:28;;;;;;;16.40;11.63;;;5.80;99.90;;;;;;5083519;28;20232;-39
2021/03/02 10:19:04;;;;;;;16.13;11.57;;;5.80;99.90;;;;;;5073084;28;20255;-39
2021/03/02 10:21:44;;;;;;;16.05;11.45;;;5.70;99.90;;;;;;5084207;28;20200;-39
2021/03/02 10:24:23;;;;;;;16.02;10.85;;;5.60;99.90;;;;;;5084359;28;20220;-39
2021/03/02 10:26:54;;;;;;;15.98;9.82;;;5.60;99.90;;;;;;5076045;28;20251;-39
2021/03/02 10:29:25;;;;;;;18.27;11.07;;;5.50;99.90;;;;;;5074462;28;20305;-38
2021/03/02 10:31:55;;;;;;;20.65;9.38;;;5.50;99.90;;;;;;5083774;28;20205;-38
2021/03/02 10:34:25;;;;;;;13.10;9.07;;;5.50;99.90;;;;;;5079967;28;20604;-39
2021/03/02 10:36:56;;;;;;;17.88;9.75;;;5.50;99.90;;;;;;5079802;28;20209;-38
2021/03/02 10:39:27;;;;;;;15.73;9.73;;;5.40;99.90;;;;;;5083103;28;20201;-38
2021/03/02 10:41:58;;;;;;;18.13;9.82;;;5.40;99.90;;;;;;5084067;28;20259;-39
2021/03/02 10:44:29;;;;;;;14.57;8.68;;;5.40;99.90;;;;;;5082589;28;20209;-38
2021/03/02 10:46:59;;;;;;;14.70;10.00;;;5.50;99.90;;;;;;5083454;28;20233;-38
2021/03/02 10:49:29;;;;;;;21.35;9.82;;;5.40;99.90;;;;;;5082201;28;20202;-38
2021/03/02 10:51:59;;;;;;;12.77;9.30;;;5.40;99.90;;;;;;5074079;28;20212;-39
2021/03/02 10:54:30;;;;;;;13.88;10.23;;;5.30;99.90;;;;;;5083470;28;20216;-38
2021/03/02 10:57:00;;;;;;;14.73;9.82;;;5.30;99.90;;;;;;5076809;28;20263;-38
2021/03/02 10:59:30;;;;;;;14.57;9.57;;;5.30;99.90;;;;;;5071546;28;20217;-38
2021/03/02 11:02:00;;;;;;;15.48;9.65;;;5.30;99.90;;;;;;5081578;28;20197;-38
2021/03/02 11:04:31;;;;;;;17.52;10.13;;;5.20;99.90;;;;;;5074481;28;20224;-39
2021/03/02 11:07:01;;;;;;;17.02;9.00;;;5.10;99.90;;;;;;5083209;28;20231;-38
2021/03/02 11:09:32;;;;;;;16.83;9.23;;;5.20;99.90;;;;;;5080152;28;20745;-38
2021/03/02 11:12:02;;;;;;;18.25;9.60;;;5.20;99.90;;;;;;5069979;28;20201;-38
2021/03/02 11:14:32;;;;;;;16.85;10.07;;;5.20;99.90;;;;;;5081575;28;20201;-38
2021/03/02 11:17:03;;;;;;;19.55;9.75;;;5.20;99.90;;;;;;5081954;28;20686;-38
2021/03/02 11:19:33;;;;;;;11.90;9.30;;;5.20;99.90;;;;;;5069695;28;20205;-38
2021/03/02 11:22:03;;;;;;;18.88;9.52;;;5.20;99.90;;;;;;5083401;28;20209;-38
2021/03/02 11:24:35;;;;;;;12.05;9.30;;;5.20;99.90;;;;;;5080967;28;20197;-38
2021/03/02 11:27:05;;;;;;;17.35;10.15;;;5.20;99.90;;;;;;5071731;28;20244;-38
2021/03/02 11:29:36;;;;;;;15.13;9.18;;;5.30;99.90;;;;;;5071907;28;20689;-37
2021/03/02 11:32:07;;;;;;;15.02;9.75;;;5.30;99.90;;;;;;5077460;28;20271;-38
2021/03/02 11:34:38;;;;;;;16.00;9.85;;;5.40;99.90;;;;;;5065736;28;20235;-38
2021/03/02 11:37:08;;;;;;;13.30;9.00;;;5.30;99.90;;;;;;5073172;28;20638;-38
2021/03/02 11:39:39;;;;;;;18.15;12.15;;;5.40;99.90;;;;;;5079791;28;20238;-38
2021/03/02 11:42:10;;;;;;;14.43;9.70;;;5.50;99.90;;;;;;5082811;28;20201;-38
2021/03/02 11:44:40;;;;;;;20.30;10.82;;;5.50;99.90;;;;;;5082102;28;20205;-38
2021/03/02 11:47:09;;;;;;;15.00;9.93;;;5.40;99.90;;;;;;5083004;28;20240;-38
2021/03/02 11:49:40;;;;;;;15.10;9.88;;;5.40;99.90;;;;;;5078485;28;20277;-38
2021/03/02 11:52:10;;;;;;;17.20;10.23;;;5.50;99.90;;;;;;5069546;28;20201;-38
2021/03/02 11:54:41;;;;;;;18.77;10.20;;;5.50;99.90;;;;;;5082669;28;20213;-38
2021/03/02 11:57:11;;;;;;;18.48;9.85;;;5.50;99.90;;;;;;5068524;28;20349;-38
2021/03/02 11:59:41;;;;;;;19.10;10.30;;;5.40;99.90;;;;;;5072090;28;20726;-38
2021/03/02 12:02:12;;;;;;;14.02;9.50;;;5.40;99.90;;;;;;5067519;28;20202;-38
2021/03/02 12:04:42;;;;;;;14.25;9.85;;;5.30;99.90;;;;;;5066850;28;20255;-38
2021/03/02 12:07:13;;;;;;;13.57;9.68;;;5.30;99.90;;;;;;5067714;28;20292;-38
2021/03/02 12:09:44;;;;;;;14.95;10.13;;;5.30;99.90;;;;;;5081808;28;20198;-38
2021/03/02 12:12:14;;;;;;;15.98;9.85;;;5.20;99.90;;;;;;5073663;28;20204;-38
2021/03/02 12:14:44;;;;;;;17.40;10.73;;;5.10;99.90;;;;;;5074387;28;20206;-38
2021/03/02 12:17:14;;;;;;;14.40;10.15;;;4.90;99.90;;;;;;5077956;28;20237;-38
2021/03/02 12:19:45;;;;;;;14.27;10.55;;;4.90;99.90;;;;;;5078461;28;20205;-38
2021/03/02 12:22:15;;;;;;;12.98;9.60;;;4.80;99.90;;;;;;5070645;28;20210;-38
2021/03/02 12:24:46;;;;;;;18.55;10.13;;;4.80;99.90;;;;;;5065389;28;20214;-38
2021/03/02 12:27:16;;;;;;;16.08;9.52;;;4.80;99.90;;;;;;5079116;28;20298;-38
2021/03/02 12:29:46;;;;;;;15.80;10.60;;;4.70;99.90;;;;;;5071793;28;20211;-38
2021/03/02 12:32:16;;;;;;;15.35;9.93;;;4.80;99.90;;;;;;5082225;28;20205;-38
2021/03/02 12:34:46;;;;;;;17.80;10.43;;;4.70;99.90;;;;;;5065777;28;20212;-38
2021/03/02 12:37:18;;;;;;;18.23;11.40;;;4.70;99.90;;;;;;5063661;28;20201;-38
2021/03/02 12:39:49;;;;;;;12.88;9.65;;;4.60;99.90;;;;;;5066859;28;20202;-38
2021/03/02 12:42:19;;;;;;;15.02;9.98;;;4.60;99.90;;;;;;5064298;28;20194;-38
2021/03/02 12:44:49;;;;;;;22.75;10.20;;;4.50;99.90;;;;;;5067353;28;20256;-38
2021/03/02 12:47:20;;;;;;;19.05;10.25;;;4.50;99.90;;;;;;5082097;28;20279;-38
2021/03/02 12:49:50;;;;;;;18.75;10.60;;;4.50;99.90;;;;;;5079110;28;20859;-38
2021/03/02 12:52:20;;;;;;;16.30;10.00;;;4.40;99.90;;;;;;5076597;28;20318;-38
2021/03/02 12:54:51;;;;;;;14.45;10.68;;;4.40;99.90;;;;;;5074628;28;20259;-38
2021/03/02 12:57:22;;;;;;;14.63;11.40;;;4.50;99.90;;;;;;5069695;28;20193;-38
2021/03/02 12:59:52;;;;;;;18.17;11.50;;;4.50;99.90;;;;;;5080879;28;20201;-38
2021/03/02 13:02:22;;;;;;;19.17;11.07;;;4.40;99.90;;;;;;5074483;28;20233;-38
2021/03/02 13:04:53;;;;;;;15.82;10.18;;;4.40;99.90;;;;;;5085076;28;20209;-38
2021/03/02 13:07:23;;;;;;;15.93;10.05;;;4.30;99.90;;;;;;5080611;28;20233;-38